.
WxDataArchive / Data Records for 2014-09-27
2014-09-26 September 2014 2014-09-28

Data Records for Saturday, 27 September 2014

Time	Temp	Chill	HIndex	Humid	Dewpt	 Wind 	HiWind	WindDir	Rain 	Barom
-----	----	-----	------	-----	-----	------	------	-------	-----	-----
00:00	58.1	58.1	58.1	88	54.6	0	0	---	0.00	30.236 
00:05	58.0	58.0	58.0	88	54.5	0	0	---	0.00	30.236 
00:10	57.8	57.8	57.8	88	54.3	0	0	---	0.00	30.236 
00:15	57.6	57.6	57.6	89	54.4	0	0	---	0.00	30.230 
00:20	57.6	57.6	57.6	89	54.4	0	0	---	0.00	30.230 
00:25	57.5	57.5	57.5	89	54.3	0	0	---	0.00	30.230 
00:30	57.5	57.5	57.5	89	54.3	0	0	---	0.00	30.229 
00:35	57.5	57.5	57.5	90	54.6	0	0	---	0.00	30.229 
00:40	57.3	57.3	57.3	90	54.4	0	0	---	0.00	30.229 
00:45	57.2	57.2	57.2	90	54.3	0	0	---	0.00	30.230 
00:50	57.0	57.0	57.0	90	54.1	0	0	---	0.00	30.230 
00:55	57.0	57.0	57.0	91	54.4	0	0	---	0.00	30.230 
01:00	57.2	57.2	57.2	91	54.6	0	0	---	0.00	30.230 
01:05	57.2	57.2	57.2	91	54.6	0	0	---	0.00	30.230 
01:10	57.0	57.0	57.0	91	54.4	0	0	---	0.00	30.230 
01:15	57.0	57.0	57.0	92	54.7	0	0	---	0.00	30.226 
01:20	57.0	57.0	57.0	92	54.7	0	0	---	0.00	30.226 
01:25	57.0	57.0	57.0	92	54.7	0	0	---	0.00	30.226 
01:30	56.9	56.9	56.9	92	54.6	0	0	---	0.00	30.225 
01:35	56.7	56.7	56.7	92	54.4	0	0	---	0.00	30.225 
01:40	56.5	56.5	56.5	92	54.2	0	0	---	0.00	30.225 
01:45	56.5	56.5	56.5	92	54.2	0	0	---	0.00	30.227 
01:50	56.3	56.3	56.3	92	54.0	0	0	---	0.00	30.227 
01:55	56.0	56.0	56.0	92	53.7	0	0	---	0.00	30.227 
02:00	55.9	55.9	55.9	92	53.6	0	0	---	0.00	30.229 
02:05	55.9	55.9	55.9	92	53.6	0	0	---	0.00	30.229 
02:10	55.9	55.9	55.9	92	53.6	0	0	---	0.00	30.229 
02:15	56.0	56.0	56.0	92	53.7	0	0	---	0.00	30.229 
02:20	56.0	56.0	56.0	93	54.0	0	0	---	0.00	30.229 
02:25	55.9	55.9	55.9	93	53.9	0	0	---	0.00	30.229 
02:30	55.9	55.9	55.9	93	53.9	0	0	---	0.00	30.227 
02:35	55.9	55.9	55.9	93	53.9	0	0	---	0.00	30.227 
02:40	55.9	55.9	55.9	93	53.9	0	0	---	0.00	30.227 
02:45	56.0	56.0	56.0	93	54.0	0	0	---	0.00	30.225 
02:50	56.0	56.0	56.0	93	54.0	0	0	---	0.00	30.225 
02:55	55.9	55.9	55.9	93	53.9	0	0	---	0.00	30.225 
03:00	55.9	55.9	55.9	93	53.9	0	0	---	0.00	30.225 
03:05	55.7	55.7	55.7	93	53.7	0	0	---	0.00	30.225 
03:10	55.7	55.7	55.7	93	53.7	0	0	---	0.00	30.225 
03:15	55.6	55.6	55.6	93	53.6	0	0	---	0.00	30.226 
03:20	55.4	55.4	55.4	93	53.4	0	0	---	0.00	30.226 
03:25	55.3	55.3	55.3	93	53.3	0	0	---	0.00	30.226 
03:30	55.1	55.1	55.1	93	53.1	0	0	---	0.00	30.225 
03:35	55.1	55.1	55.1	94	53.4	0	0	---	0.00	30.225 
03:40	55.3	55.3	55.3	94	53.6	0	0	---	0.00	30.225 
03:45	55.1	55.1	55.1	94	53.4	0	0	---	0.00	30.226 
03:50	55.1	55.1	55.1	94	53.4	0	0	---	0.00	30.226 
03:55	55.1	55.1	55.1	94	53.4	0	0	---	0.00	30.226 
04:00	55.1	55.1	55.1	94	53.4	0	0	---	0.00	30.223 
04:05	55.0	55.0	55.0	94	53.3	0	0	---	0.00	30.223 
04:10	55.1	55.1	55.1	94	53.4	0	0	---	0.00	30.223 
04:15	55.1	55.1	55.1	94	53.4	0	0	---	0.00	30.222 
04:20	55.0	55.0	55.0	94	53.3	0	0	---	0.00	30.222 
04:25	54.8	54.8	54.8	94	53.1	0	0	---	0.00	30.222 
04:30	54.5	54.5	54.5	94	52.8	0	0	---	0.00	30.220 
04:35	54.4	54.4	54.4	94	52.7	0	0	---	0.00	30.220 
04:40	54.2	54.2	54.2	94	52.5	0	0	---	0.00	30.220 
04:45	54.1	54.1	54.1	94	52.4	0	0	---	0.00	30.226 
04:50	53.9	53.9	53.9	94	52.2	0	0	---	0.00	30.226 
04:55	53.8	53.8	53.8	94	52.1	0	0	---	0.00	30.226 
05:00	53.6	53.6	53.6	94	51.9	0	0	---	0.00	30.226 
05:05	53.6	53.6	53.6	94	51.9	0	0	---	0.00	30.226 
05:10	53.5	53.5	53.5	94	51.8	0	0	---	0.00	30.226 
05:15	53.5	53.5	53.5	94	51.8	0	0	---	0.00	30.226 
05:20	53.3	53.3	53.3	94	51.6	0	0	---	0.00	30.226 
05:25	53.3	53.3	53.3	94	51.6	0	0	---	0.00	30.226 
05:30	53.2	53.2	53.2	95	51.8	0	0	---	0.00	30.224 
05:35	53.3	53.3	53.3	95	51.9	0	0	---	0.00	30.224 
05:40	53.3	53.3	53.3	95	51.9	0	0	---	0.00	30.224 
05:45	53.5	53.5	53.5	95	52.1	0	0	---	0.00	30.227 
05:50	53.5	53.5	53.5	95	52.1	0	0	---	0.00	30.227 
05:55	53.5	53.5	53.5	95	52.1	0	0	---	0.00	30.227 
06:00	53.6	53.6	53.6	95	52.2	0	0	---	0.00	30.227 
06:05	53.6	53.6	53.6	95	52.2	0	0	---	0.00	30.227 
06:10	53.8	53.8	53.8	95	52.4	0	0	---	0.00	30.227 
06:15	53.9	53.9	53.9	95	52.5	0	0	---	0.00	30.230 
06:20	53.9	53.9	53.9	95	52.5	0	0	---	0.00	30.230 
06:25	53.9	53.9	53.9	95	52.5	0	0	---	0.00	30.230 
06:30	53.9	53.9	53.9	95	52.5	0	0	---	0.00	30.229 
06:35	53.9	53.9	53.9	95	52.5	0	0	---	0.00	30.229 
06:40	53.9	53.9	53.9	95	52.5	0	0	---	0.00	30.229 
06:45	53.9	53.9	53.9	95	52.5	0	0	---	0.00	30.230 
06:50	53.8	53.8	53.8	95	52.4	0	0	---	0.00	30.230 
06:55	53.6	53.6	53.6	95	52.2	0	0	---	0.00	30.230 
07:00	53.5	53.5	53.5	95	52.1	0	0	---	0.00	30.233 
07:05	53.3	53.3	53.3	95	51.9	0	0	---	0.00	30.233 
07:10	53.3	53.3	53.3	95	51.9	0	0	---	0.00	30.233 
07:15	53.2	53.2	53.2	95	51.8	0	0	---	0.00	30.241 
07:20	52.9	52.9	52.9	95	51.5	0	0	---	0.00	30.241 
07:25	52.8	52.8	52.8	95	51.4	0	0	---	0.00	30.241 
07:30	52.6	52.6	52.6	95	51.2	0	0	---	0.00	30.243 
07:35	52.8	52.8	52.8	96	51.7	0	0	---	0.00	30.243 
07:40	53.1	53.1	53.1	96	52.0	0	0	---	0.00	30.243 
07:45	53.6	53.6	53.6	96	52.5	0	0	---	0.00	30.245 
07:50	54.2	54.2	54.2	96	53.1	0	1	90	0.00	30.245 
07:55	54.5	54.5	54.5	96	53.4	0	1	90	0.00	30.245 
08:00	54.7	54.7	54.7	96	53.6	0	1	90	0.00	30.250 
08:05	54.7	54.7	54.7	96	53.6	0	1	90	0.00	30.250 
08:10	54.5	54.5	54.5	96	53.4	1	3	90	0.00	30.250 
08:15	54.4	54.4	54.4	96	53.3	0	2	90	0.00	30.255 
08:20	54.4	54.4	54.4	96	53.3	0	2	90	0.00	30.255 
08:25	54.2	54.2	54.2	96	53.1	0	2	90	0.00	30.255 
08:30	54.2	54.2	54.2	96	53.1	0	1	90	0.00	30.258 
08:35	54.4	54.4	54.4	96	53.3	0	1	90	0.00	30.258 
08:40	54.4	54.4	54.4	96	53.3	0	1	90	0.00	30.258 
08:45	54.5	54.5	54.5	96	53.4	0	1	90	0.00	30.259 
08:50	54.7	54.7	54.7	96	53.6	0	1	90	0.00	30.259 
08:55	54.7	54.7	54.7	96	53.6	0	2	90	0.00	30.259 
09:00	55.0	55.0	55.0	96	53.9	0	2	90	0.00	30.259 
09:05	55.1	55.1	55.1	96	54.0	0	2	90	0.00	30.259 
09:10	55.4	55.4	55.4	96	54.3	0	3	90	0.00	30.259 
09:15	55.7	55.7	55.7	96	54.6	0	2	90	0.00	30.256 
09:20	56.2	56.2	56.2	96	55.1	0	1	90	0.00	30.256 
09:25	56.3	56.3	56.3	96	55.2	0	2	90	0.00	30.256 
09:30	56.5	56.5	56.5	96	55.4	0	1	90	0.00	30.256 
09:35	56.7	56.7	56.7	96	55.6	0	1	90	0.00	30.256 
09:40	57.0	57.0	57.0	96	55.9	0	1	90	0.00	30.256 
09:45	57.3	57.3	57.3	97	56.5	0	2	90	0.00	30.259 
09:50	57.5	57.5	57.5	96	56.4	0	1	90	0.00	30.259 
09:55	57.6	57.6	57.6	96	56.5	0	3	90	0.00	30.259 
10:00	57.8	57.8	57.8	96	56.7	1	4	90	0.00	30.258 
10:05	58.0	58.0	58.0	96	56.9	0	3	90	0.00	30.258 
10:10	58.0	58.0	58.0	96	56.9	1	3	90	0.00	30.258 
10:15	58.1	58.1	58.1	96	57.0	0	1	90	0.00	30.269 
10:20	58.6	58.6	58.6	96	57.5	0	1	90	0.00	30.269 
10:25	59.2	59.2	59.2	96	58.1	1	4	90	0.00	30.269 
10:30	59.6	59.6	59.6	96	58.5	1	4	90	0.00	30.261 
10:35	60.4	60.4	60.4	95	59.0	0	2	90	0.00	30.261 
10:40	61.2	61.2	61.2	94	59.5	1	4	90	0.00	30.261 
10:45	61.8	61.8	61.8	92	59.4	1	3	90	0.00	30.253 
10:50	62.3	62.3	62.3	89	59.0	2	4	90	0.00	30.253 
10:55	62.6	62.6	62.6	88	59.0	1	2	90	0.00	30.253 
11:00	63.1	63.1	63.1	87	59.2	1	3	90	0.00	30.252 
11:05	63.5	63.5	63.5	85	58.9	1	4	90	0.00	30.252 
11:10	64.0	64.0	64.0	84	59.1	1	5	90	0.00	30.252 
11:15	64.3	64.3	64.3	83	59.0	1	4	90	0.00	30.253 
11:20	64.7	64.7	64.7	82	59.1	0	3	90	0.00	30.253 
11:25	65.5	65.5	65.5	81	59.5	0	3	90	0.00	30.253 
11:30	66.1	66.1	66.1	79	59.4	1	3	90	0.00	30.251 
11:35	66.4	66.4	66.4	77	59.0	1	3	90	0.00	30.251 
11:40	66.8	66.8	66.8	76	59.0	1	4	90	0.00	30.251 
11:45	66.9	66.9	66.9	77	59.4	1	4	90	0.00	30.250 
11:50	67.3	67.3	67.3	75	59.1	1	4	90	0.00	30.250 
11:55	68.1	68.1	68.1	76	60.2	0	2	90	0.00	30.250 
12:00	68.9	68.9	68.9	73	59.9	0	2	90	0.00	30.247 
12:05	69.6	69.6	69.6	70	59.4	1	3	90	0.00	30.247 
12:10	70.1	70.1	70.1	68	59.0	1	5	90	0.00	30.247 
12:15	70.3	70.3	70.3	70	60.0	1	4	90	0.00	30.241 
12:20	70.4	70.4	70.4	65	58.1	1	4	90	0.00	30.241 
12:25	70.8	70.8	70.8	66	58.9	1	3	90	0.00	30.241 
12:30	70.9	70.9	70.9	67	59.4	0	2	90	0.00	30.238 
12:35	71.1	71.1	71.1	65	58.7	0	2	90	0.00	30.238 
12:40	71.5	71.5	71.5	65	59.1	1	3	90	0.00	30.238 
12:45	72.0	72.0	72.0	64	59.1	1	3	90	0.00	30.236 
12:50	72.5	72.5	72.5	62	58.7	1	4	90	0.00	30.236 
12:55	73.2	73.2	73.2	59	58.0	0	3	90	0.00	30.236 
13:00	73.7	73.7	73.7	59	58.5	0	3	90	0.00	30.232 
13:05	74.0	74.0	74.0	58	58.3	1	3	90	0.00	30.232 
13:10	74.4	74.4	74.4	55	57.2	0	4	90	0.00	30.232 
13:15	74.9	74.9	74.9	51	55.5	1	2	90	0.00	30.229 
13:20	75.1	75.1	77.7	51	55.7	1	4	90	0.00	30.229 
13:25	75.1	75.1	77.6	52	56.3	1	5	90	0.00	30.229 
13:30	75.1	75.1	77.6	53	56.8	0	3	90	0.00	30.225 
13:35	74.9	74.9	74.9	52	56.1	1	3	90	0.00	30.225 
13:40	74.7	74.7	74.7	53	56.4	1	4	90	0.00	30.225 
13:45	74.9	74.9	74.9	53	56.6	1	5	90	0.00	30.216 
13:50	74.9	74.9	74.9	53	56.6	1	3	90	0.00	30.216 
13:55	75.1	75.1	77.7	51	55.7	0	2	90	0.00	30.216 
14:00	75.3	75.3	77.7	50	55.4	1	6	90	0.00	30.211 
14:05	75.1	75.1	77.6	54	57.3	0	2	90	0.00	30.211 
14:10	75.1	75.1	77.6	52	56.3	0	2	90	0.00	30.211 
14:15	75.3	75.3	77.7	52	56.4	1	4	90	0.00	30.201 
14:20	75.4	75.4	77.8	52	56.5	0	2	90	0.00	30.201 
14:25	75.4	75.4	77.8	51	56.0	0	2	90	0.00	30.201 
14:30	75.6	75.6	77.9	53	57.2	0	3	90	0.00	30.197 
14:35	75.8	75.8	78.0	51	56.4	1	4	90	0.00	30.197 
14:40	76.1	76.1	78.1	50	56.1	0	2	90	0.00	30.197 
14:45	76.3	76.3	78.2	49	55.7	1	5	90	0.00	30.193 
14:50	76.3	76.3	78.2	47	54.6	1	4	90	0.00	30.193 
14:55	76.5	76.5	78.3	47	54.7	1	3	90	0.00	30.193 
15:00	76.5	76.5	78.3	47	54.7	1	4	90	0.00	30.185 
15:05	76.7	76.7	78.3	46	54.3	0	1	90	0.00	30.185 
15:10	76.7	76.7	78.3	46	54.3	1	4	90	0.00	30.185 
15:15	76.7	76.7	78.2	42	51.9	0	3	90	0.00	30.183 
15:20	76.8	76.8	78.3	45	53.8	0	3	90	0.00	30.183 
15:25	76.8	76.8	78.4	48	55.6	1	4	90	0.00	30.183 
15:30	76.8	76.8	78.4	48	55.6	1	3	90	0.00	30.177 
15:35	76.7	76.7	78.4	47	54.9	1	3	90	0.00	30.177 
15:40	76.3	76.3	78.1	45	53.4	1	5	90	0.00	30.177 
15:45	76.1	76.1	78.0	45	53.2	1	3	90	0.00	30.171 
15:50	76.3	76.3	78.1	44	52.8	1	4	90	0.00	30.171 
15:55	76.5	76.5	78.2	44	52.9	1	4	90	0.00	30.171 
16:00	76.7	76.7	78.3	45	53.7	0	4	90	0.00	30.166 
16:05	76.7	76.7	78.2	43	52.5	1	5	90	0.00	30.166 
16:10	76.7	76.7	78.2	43	52.5	0	2	90	0.00	30.166 
16:15	76.5	76.5	78.1	43	52.3	1	4	90	0.00	30.167 
16:20	76.5	76.5	78.1	43	52.3	0	3	90	0.00	30.167 
16:25	76.3	76.3	78.0	43	52.1	0	1	90	0.00	30.167 
16:30	76.3	76.3	77.9	40	50.2	1	4	90	0.00	30.166 
16:35	76.3	76.3	78.0	41	50.8	0	1	90	0.00	30.166 
16:40	76.3	76.3	78.0	43	52.1	0	1	90	0.00	30.166 
16:45	76.1	76.1	77.9	41	50.7	0	1	90	0.00	30.161 
16:50	76.1	76.1	78.0	43	52.0	0	2	90	0.00	30.161 
16:55	76.1	76.1	77.9	42	51.3	0	3	90	0.00	30.161 
17:00	76.1	76.1	77.8	39	49.3	1	4	90	0.00	30.157 
17:05	76.3	76.3	78.1	45	53.4	1	3	90	0.00	30.157 
17:10	76.3	76.3	78.1	44	52.8	1	3	90	0.00	30.157 
17:15	76.1	76.1	78.0	44	52.6	0	2	90	0.00	30.154 
17:20	76.0	76.0	77.9	43	51.9	0	2	90	0.00	30.154 
17:25	75.6	75.6	77.8	44	52.1	1	3	90	0.00	30.154 
17:30	75.4	75.4	77.7	45	52.6	0	1	90	0.00	30.155 
17:35	75.3	75.3	77.7	46	53.1	0	1	90	0.00	30.155 
17:40	75.1	75.1	77.6	45	52.3	0	1	90	0.00	30.155 
17:45	75.1	75.1	77.7	47	53.5	0	2	90	0.00	30.152 
17:50	74.9	74.9	74.9	46	52.7	0	1	90	0.00	30.152 
17:55	75.1	75.1	77.7	46	52.9	0	1	90	0.00	30.152 
18:00	75.1	75.1	77.6	45	52.3	0	1	90	0.00	30.145 
18:05	75.1	75.1	77.6	44	51.7	0	1	90	0.00	30.145 
18:10	74.9	74.9	74.9	45	52.1	0	1	90	0.00	30.145 
18:15	74.7	74.7	74.7	44	51.3	0	1	90	0.00	30.141 
18:20	74.6	74.6	74.6	45	51.8	0	0	---	0.00	30.141 
18:25	74.2	74.2	74.2	46	52.1	0	0	---	0.00	30.141 
18:30	74.0	74.0	74.0	46	51.9	0	0	---	0.00	30.143 
18:35	73.9	73.9	73.9	47	52.4	0	0	---	0.00	30.143 
18:40	73.5	73.5	73.5	48	52.6	0	0	---	0.00	30.143 
18:45	73.5	73.5	73.5	50	53.7	0	0	---	0.00	30.142 
18:50	73.2	73.2	73.2	50	53.4	0	0	---	0.00	30.142 
18:55	73.0	73.0	73.0	51	53.8	0	0	---	0.00	30.142 
19:00	72.7	72.7	72.7	52	54.0	0	0	---	0.00	30.144 
19:05	72.1	72.1	72.1	53	54.0	0	0	---	0.00	30.144 
19:10	71.8	71.8	71.8	53	53.7	0	0	---	0.00	30.144 
19:15	71.5	71.5	71.5	54	54.0	0	0	---	0.00	30.143 
19:20	70.9	70.9	70.9	54	53.4	0	0	---	0.00	30.143 
19:25	70.6	70.6	70.6	55	53.6	0	0	---	0.00	30.143 
19:30	70.1	70.1	70.1	56	53.7	0	0	---	0.00	30.143 
19:35	69.6	69.6	69.6	57	53.7	0	0	---	0.00	30.143 
19:40	69.1	69.1	69.1	58	53.7	0	0	---	0.00	30.143 
19:45	68.6	68.6	68.6	58	53.2	0	0	---	0.00	30.141 
19:50	68.1	68.1	68.1	58	52.8	0	0	---	0.00	30.141 
19:55	67.8	67.8	67.8	60	53.4	0	0	---	0.00	30.141 
20:00	67.4	67.4	67.4	62	53.9	0	1	90	0.00	30.144 
20:05	67.1	67.1	67.1	63	54.1	0	1	90	0.00	30.144 
20:10	66.8	66.8	66.8	62	53.4	0	1	90	0.00	30.144 
20:15	66.6	66.6	66.6	60	52.3	0	0	---	0.00	30.147 
20:20	66.6	66.6	66.6	59	51.8	0	0	---	0.00	30.147 
20:25	66.8	66.8	66.8	61	52.9	0	0	---	0.00	30.147 
20:30	66.9	66.9	66.9	61	53.0	0	0	---	0.00	30.149 
20:35	66.9	66.9	66.9	62	53.4	0	0	---	0.00	30.149 
20:40	67.1	67.1	67.1	64	54.5	0	0	---	0.00	30.149 
20:45	67.3	67.3	67.3	65	55.1	0	3	90	0.00	30.155 
20:50	67.3	67.3	67.3	66	55.5	0	1	90	0.00	30.155 
20:55	67.3	67.3	67.3	67	56.0	0	2	90	0.00	30.155 
21:00	67.3	67.3	67.3	68	56.4	0	2	90	0.00	30.158 
21:05	67.1	67.1	67.1	69	56.6	0	2	90	0.00	30.158 
21:10	66.9	66.9	66.9	69	56.4	0	1	90	0.00	30.158 
21:15	66.8	66.8	66.8	69	56.3	0	1	90	0.00	30.159 
21:20	66.6	66.6	66.6	70	56.5	0	1	90	0.00	30.159 
21:25	66.4	66.4	66.4	71	56.7	0	2	90	0.00	30.159 
21:30	66.3	66.3	66.3	71	56.6	0	2	90	0.00	30.158 
21:35	66.1	66.1	66.1	71	56.4	0	3	90	0.00	30.158 
21:40	66.0	66.0	66.0	71	56.3	0	2	90	0.00	30.158 
21:45	65.8	65.8	65.8	71	56.1	0	1	90	0.00	30.158 
21:50	65.6	65.6	65.6	71	55.9	0	2	90	0.00	30.158 
21:55	65.5	65.5	65.5	71	55.8	0	3	90	0.00	30.158 
22:00	65.2	65.2	65.2	71	55.6	0	3	90	0.00	30.160 
22:05	65.0	65.0	65.0	72	55.7	0	2	90	0.00	30.160 
22:10	64.8	64.8	64.8	72	55.6	0	2	90	0.00	30.160 
22:15	64.7	64.7	64.7	72	55.5	0	1	90	0.00	30.155 
22:20	64.3	64.3	64.3	73	55.5	0	1	90	0.00	30.155 
22:25	64.2	64.2	64.2	73	55.4	0	1	90	0.00	30.155 
22:30	63.9	63.9	63.9	74	55.4	0	1	90	0.00	30.158 
22:35	63.7	63.7	63.7	74	55.3	0	1	90	0.00	30.158 
22:40	63.4	63.4	63.4	75	55.3	0	1	90	0.00	30.158 
22:45	63.2	63.2	63.2	75	55.1	0	1	90	0.00	30.159 
22:50	63.1	63.1	63.1	76	55.4	0	1	90	0.00	30.159 
22:55	62.7	62.7	62.7	76	55.0	0	1	90	0.00	30.159 
23:00	62.6	62.6	62.6	77	55.3	0	1	90	0.00	30.158 
23:05	62.4	62.4	62.4	77	55.1	0	1	90	0.00	30.158 
23:10	62.3	62.3	62.3	77	55.0	0	0	---	0.00	30.158 
23:15	62.1	62.1	62.1	77	54.8	0	0	---	0.00	30.158 
23:20	62.0	62.0	62.0	77	54.7	0	0	---	0.00	30.158 
23:25	61.8	61.8	61.8	78	54.9	0	0	---	0.00	30.158 
23:30	61.5	61.5	61.5	79	54.9	0	0	---	0.00	30.159 
23:35	61.3	61.3	61.3	80	55.1	0	0	---	0.00	30.159 
23:40	61.2	61.2	61.2	80	55.0	0	0	---	0.00	30.159 
23:45	61.0	61.0	61.0	81	55.1	0	0	---	0.00	30.155 
23:50	60.9	60.9	60.9	81	55.0	0	0	---	0.00	30.155 
23:55	60.7	60.7	60.7	81	54.8	0	0	---	0.00	30.155 

CoCoRaHS
IN-AL-39
A2 Web Hosting
Creative Commons License
GoDaddy
search engine by freefind advanced

loaded 2018-11-19 19:12:35 • last modified 2010-11-18 10:43:29
Privacy PolicyDisclaimer
• wx.awcolley.com is powered by PmWiki v.2002016 •
• all content (unless otherwise noted) © 2018 A W Colley